sensor_id;sensor_type;location;lat;lon;timestamp;P1;durP1;ratioP1;P2;durP2;ratioP2
75912;SDS011;64592;52.168;21.040;2023-03-01T00:01:13;71.18;;;29.42;;
75912;SDS011;64592;52.168;21.040;2023-03-01T00:06:16;50.30;;;21.20;;
75912;SDS011;64592;52.168;21.040;2023-03-01T00:11:19;58.92;;;24.02;;
75912;SDS011;64592;52.168;21.040;2023-03-01T00:16:24;61.00;;;25.70;;
75912;SDS011;64592;52.168;21.040;2023-03-01T00:21:27;67.47;;;30.13;;
75912;SDS011;64592;52.168;21.040;2023-03-01T00:26:29;59.55;;;24.83;;
75912;SDS011;64592;52.168;21.040;2023-03-01T00:31:33;38.30;;;20.10;;
75912;SDS011;64592;52.168;21.040;2023-03-01T00:36:35;52.25;;;23.42;;
75912;SDS011;64592;52.168;21.040;2023-03-01T00:41:38;37.42;;;19.75;;
75912;SDS011;64592;52.168;21.040;2023-03-01T00:46:41;54.33;;;24.75;;
75912;SDS011;64592;52.168;21.040;2023-03-01T00:51:43;60.83;;;25.00;;
75912;SDS011;64592;52.168;21.040;2023-03-01T01:01:47;66.43;;;25.50;;
75912;SDS011;64592;52.168;21.040;2023-03-01T01:06:49;58.10;;;25.67;;
75912;SDS011;64592;52.168;21.040;2023-03-01T01:16:54;50.90;;;24.90;;
75912;SDS011;64592;52.168;21.040;2023-03-01T01:21:56;42.17;;;19.65;;
75912;SDS011;64592;52.168;21.040;2023-03-01T01:32:00;39.47;;;16.92;;
75912;SDS011;64592;52.168;21.040;2023-03-01T01:37:02;47.53;;;23.88;;
75912;SDS011;64592;52.168;21.040;2023-03-01T01:42:09;46.92;;;21.90;;
75912;SDS011;64592;52.168;21.040;2023-03-01T01:47:18;41.85;;;19.08;;
75912;SDS011;64592;52.168;21.040;2023-03-01T01:52:24;55.28;;;20.85;;
75912;SDS011;64592;52.168;21.040;2023-03-01T01:57:29;43.28;;;20.83;;
75912;SDS011;64592;52.168;21.040;2023-03-01T02:02:36;42.17;;;19.27;;
75912;SDS011;64592;52.168;21.040;2023-03-01T02:07:39;53.13;;;21.33;;
75912;SDS011;64592;52.168;21.040;2023-03-01T02:12:43;48.85;;;22.42;;
75912;SDS011;64592;52.168;21.040;2023-03-01T02:17:46;49.08;;;20.13;;
75912;SDS011;64592;52.168;21.040;2023-03-01T02:22:48;44.67;;;19.40;;
75912;SDS011;64592;52.168;21.040;2023-03-01T02:27:53;41.30;;;19.33;;
75912;SDS011;64592;52.168;21.040;2023-03-01T02:33:02;46.20;;;17.63;;
75912;SDS011;64592;52.168;21.040;2023-03-01T02:38:06;45.63;;;17.25;;
75912;SDS011;64592;52.168;21.040;2023-03-01T02:43:10;37.75;;;18.02;;
75912;SDS011;64592;52.168;21.040;2023-03-01T02:48:14;33.05;;;14.55;;
75912;SDS011;64592;52.168;21.040;2023-03-01T02:53:17;42.00;;;18.02;;
75912;SDS011;64592;52.168;21.040;2023-03-01T02:58:24;51.05;;;21.58;;
75912;SDS011;64592;52.168;21.040;2023-03-01T03:03:27;51.00;;;21.77;;
75912;SDS011;64592;52.168;21.040;2023-03-01T03:08:29;44.60;;;19.83;;
75912;SDS011;64592;52.168;21.040;2023-03-01T03:18:33;33.28;;;17.52;;
75912;SDS011;64592;52.168;21.040;2023-03-01T03:23:35;43.70;;;21.48;;
75912;SDS011;64592;52.168;21.040;2023-03-01T03:28:37;41.35;;;18.90;;
75912;SDS011;64592;52.168;21.040;2023-03-01T03:33:41;34.83;;;16.00;;
75912;SDS011;64592;52.168;21.040;2023-03-01T03:38:43;44.17;;;18.58;;
75912;SDS011;64592;52.168;21.040;2023-03-01T03:43:45;47.65;;;19.73;;
75912;SDS011;64592;52.168;21.040;2023-03-01T03:48:48;40.22;;;20.52;;
75912;SDS011;64592;52.168;21.040;2023-03-01T03:53:50;43.78;;;20.83;;
75912;SDS011;64592;52.168;21.040;2023-03-01T03:58:52;49.88;;;22.10;;
75912;SDS011;64592;52.168;21.040;2023-03-01T04:09:04;34.72;;;17.80;;
75912;SDS011;64592;52.168;21.040;2023-03-01T04:14:05;37.83;;;17.30;;
75912;SDS011;64592;52.168;21.040;2023-03-01T04:19:08;50.15;;;22.83;;
75912;SDS011;64592;52.168;21.040;2023-03-01T04:24:10;39.88;;;20.67;;
75912;SDS011;64592;52.168;21.040;2023-03-01T04:29:12;38.97;;;17.65;;
75912;SDS011;64592;52.168;21.040;2023-03-01T04:34:15;52.30;;;21.60;;
75912;SDS011;64592;52.168;21.040;2023-03-01T04:39:17;46.60;;;20.52;;
75912;SDS011;64592;52.168;21.040;2023-03-01T04:44:19;38.03;;;15.68;;
75912;SDS011;64592;52.168;21.040;2023-03-01T04:54:23;30.52;;;15.80;;
75912;SDS011;64592;52.168;21.040;2023-03-01T04:59:25;35.35;;;17.67;;
75912;SDS011;64592;52.168;21.040;2023-03-01T05:09:31;38.60;;;19.60;;
75912;SDS011;64592;52.168;21.040;2023-03-01T05:19:36;26.30;;;13.52;;
75912;SDS011;64592;52.168;21.040;2023-03-01T05:24:37;38.63;;;18.42;;
75912;SDS011;64592;52.168;21.040;2023-03-01T05:29:39;46.65;;;21.00;;
75912;SDS011;64592;52.168;21.040;2023-03-01T05:39:46;40.92;;;18.48;;
75912;SDS011;64592;52.168;21.040;2023-03-01T05:44:50;41.80;;;18.48;;
75912;SDS011;64592;52.168;21.040;2023-03-01T05:54:55;38.40;;;17.75;;
75912;SDS011;64592;52.168;21.040;2023-03-01T06:04:59;39.50;;;17.02;;
75912;SDS011;64592;52.168;21.040;2023-03-01T06:10:01;38.53;;;17.77;;
75912;SDS011;64592;52.168;21.040;2023-03-01T06:15:04;38.95;;;17.27;;
75912;SDS011;64592;52.168;21.040;2023-03-01T06:20:12;44.08;;;18.25;;
75912;SDS011;64592;52.168;21.040;2023-03-01T06:25:17;38.97;;;16.95;;
75912;SDS011;64592;52.168;21.040;2023-03-01T06:30:22;39.13;;;16.58;;
75912;SDS011;64592;52.168;21.040;2023-03-01T06:35:27;21.25;;;11.63;;
75912;SDS011;64592;52.168;21.040;2023-03-01T06:40:30;38.55;;;18.58;;
75912;SDS011;64592;52.168;21.040;2023-03-01T06:45:32;46.88;;;17.92;;
75912;SDS011;64592;52.168;21.040;2023-03-01T06:50:35;40.13;;;19.45;;
75912;SDS011;64592;52.168;21.040;2023-03-01T06:55:38;37.83;;;16.67;;
75912;SDS011;64592;52.168;21.040;2023-03-01T07:05:44;28.38;;;11.32;;
75912;SDS011;64592;52.168;21.040;2023-03-01T07:10:46;36.88;;;19.10;;
75912;SDS011;64592;52.168;21.040;2023-03-01T07:20:50;41.85;;;17.55;;
75912;SDS011;64592;52.168;21.040;2023-03-01T07:25:52;49.60;;;23.42;;
75912;SDS011;64592;52.168;21.040;2023-03-01T07:30:54;44.78;;;19.60;;
75912;SDS011;64592;52.168;21.040;2023-03-01T07:35:57;44.80;;;19.60;;
75912;SDS011;64592;52.168;21.040;2023-03-01T07:41:01;30.38;;;16.52;;
75912;SDS011;64592;52.168;21.040;2023-03-01T07:46:05;37.90;;;18.40;;
75912;SDS011;64592;52.168;21.040;2023-03-01T07:51:09;36.22;;;16.60;;
75912;SDS011;64592;52.168;21.040;2023-03-01T07:56:12;39.75;;;16.80;;
75912;SDS011;64592;52.168;21.040;2023-03-01T08:01:17;39.45;;;17.60;;
75912;SDS011;64592;52.168;21.040;2023-03-01T08:06:21;32.22;;;17.55;;
75912;SDS011;64592;52.168;21.040;2023-03-01T08:11:23;41.53;;;16.85;;
75912;SDS011;64592;52.168;21.040;2023-03-01T08:16:25;40.85;;;15.32;;
75912;SDS011;64592;52.168;21.040;2023-03-01T08:21:28;33.22;;;16.25;;
75912;SDS011;64592;52.168;21.040;2023-03-01T08:26:29;28.45;;;13.73;;
75912;SDS011;64592;52.168;21.040;2023-03-01T08:31:32;30.73;;;13.90;;
75912;SDS011;64592;52.168;21.040;2023-03-01T08:36:37;37.25;;;14.32;;
75912;SDS011;64592;52.168;21.040;2023-03-01T08:41:40;29.08;;;11.95;;
75912;SDS011;64592;52.168;21.040;2023-03-01T08:46:42;27.30;;;12.15;;
75912;SDS011;64592;52.168;21.040;2023-03-01T08:51:47;26.60;;;12.10;;
75912;SDS011;64592;52.168;21.040;2023-03-01T08:56:49;29.02;;;11.63;;
75912;SDS011;64592;52.168;21.040;2023-03-01T09:01:50;23.65;;;12.02;;
75912;SDS011;64592;52.168;21.040;2023-03-01T09:06:54;28.55;;;11.95;;
75912;SDS011;64592;52.168;21.040;2023-03-01T09:11:56;25.10;;;12.40;;
75912;SDS011;64592;52.168;21.040;2023-03-01T09:16:57;30.63;;;12.90;;
75912;SDS011;64592;52.168;21.040;2023-03-01T09:22:04;26.85;;;12.70;;
75912;SDS011;64592;52.168;21.040;2023-03-01T09:27:05;27.27;;;12.88;;
75912;SDS011;64592;52.168;21.040;2023-03-01T09:32:08;24.27;;;12.27;;
75912;SDS011;64592;52.168;21.040;2023-03-01T09:37:11;24.45;;;12.75;;
75912;SDS011;64592;52.168;21.040;2023-03-01T09:42:15;27.33;;;13.27;;
75912;SDS011;64592;52.168;21.040;2023-03-01T09:47:17;24.50;;;12.40;;
75912;SDS011;64592;52.168;21.040;2023-03-01T09:52:25;29.05;;;12.48;;
75912;SDS011;64592;52.168;21.040;2023-03-01T09:57:36;19.50;;;11.23;;
75912;SDS011;64592;52.168;21.040;2023-03-01T10:02:45;25.85;;;12.02;;
75912;SDS011;64592;52.168;21.040;2023-03-01T10:07:53;27.63;;;11.93;;
75912;SDS011;64592;52.168;21.040;2023-03-01T10:13:07;17.88;;;10.10;;
75912;SDS011;64592;52.168;21.040;2023-03-01T10:18:18;25.38;;;12.90;;
75912;SDS011;64592;52.168;21.040;2023-03-01T10:23:24;25.58;;;11.60;;
75912;SDS011;64592;52.168;21.040;2023-03-01T10:28:29;24.80;;;13.50;;
75912;SDS011;64592;52.168;21.040;2023-03-01T10:33:38;21.73;;;10.85;;
75912;SDS011;64592;52.168;21.040;2023-03-01T10:38:49;23.85;;;11.73;;
75912;SDS011;64592;52.168;21.040;2023-03-01T10:43:54;21.05;;;9.77;;
75912;SDS011;64592;52.168;21.040;2023-03-01T10:49:10;20.13;;;9.40;;
75912;SDS011;64592;52.168;21.040;2023-03-01T10:54:18;18.27;;;9.80;;
75912;SDS011;64592;52.168;21.040;2023-03-01T10:59:24;12.68;;;7.55;;
75912;SDS011;64592;52.168;21.040;2023-03-01T11:04:28;21.33;;;10.43;;
75912;SDS011;64592;52.168;21.040;2023-03-01T11:09:32;21.52;;;9.55;;
75912;SDS011;64592;52.168;21.040;2023-03-01T11:14:37;19.25;;;8.98;;
75912;SDS011;64592;52.168;21.040;2023-03-01T11:19:49;14.23;;;7.25;;
75912;SDS011;64592;52.168;21.040;2023-03-01T11:25:03;17.00;;;8.48;;
75912;SDS011;64592;52.168;21.040;2023-03-01T11:30:06;17.02;;;9.75;;
75912;SDS011;64592;52.168;21.040;2023-03-01T11:35:18;14.82;;;7.95;;
75912;SDS011;64592;52.168;21.040;2023-03-01T11:40:25;16.15;;;8.40;;
75912;SDS011;64592;52.168;21.040;2023-03-01T11:45:31;16.23;;;8.35;;
75912;SDS011;64592;52.168;21.040;2023-03-01T11:50:44;16.52;;;9.00;;
75912;SDS011;64592;52.168;21.040;2023-03-01T11:55:54;14.80;;;8.40;;
75912;SDS011;64592;52.168;21.040;2023-03-01T12:01:08;18.65;;;9.32;;
75912;SDS011;64592;52.168;21.040;2023-03-01T12:11:53;15.48;;;8.18;;
75912;SDS011;64592;52.168;21.040;2023-03-01T12:17:25;15.90;;;8.00;;
75912;SDS011;64592;52.168;21.040;2023-03-01T12:22:46;13.20;;;7.75;;
75912;SDS011;64592;52.168;21.040;2023-03-01T12:33:45;17.45;;;9.00;;
75912;SDS011;64592;52.168;21.040;2023-03-01T12:38:57;15.63;;;9.00;;
75912;SDS011;64592;52.168;21.040;2023-03-01T12:44:10;15.52;;;7.90;;
75912;SDS011;64592;52.168;21.040;2023-03-01T12:49:25;12.30;;;7.43;;
75912;SDS011;64592;52.168;21.040;2023-03-01T12:54:31;17.75;;;8.63;;
75912;SDS011;64592;52.168;21.040;2023-03-01T12:59:37;19.63;;;8.45;;
75912;SDS011;64592;52.168;21.040;2023-03-01T13:04:50;15.45;;;8.07;;
75912;SDS011;64592;52.168;21.040;2023-03-01T13:10:06;12.88;;;8.60;;
75912;SDS011;64592;52.168;21.040;2023-03-01T13:15:25;16.35;;;8.30;;
75912;SDS011;64592;52.168;21.040;2023-03-01T13:20:31;16.60;;;8.30;;
75912;SDS011;64592;52.168;21.040;2023-03-01T13:25:39;14.77;;;8.63;;
75912;SDS011;64592;52.168;21.040;2023-03-01T13:31:08;16.35;;;9.32;;
75912;SDS011;64592;52.168;21.040;2023-03-01T13:36:13;19.35;;;10.07;;
75912;SDS011;64592;52.168;21.040;2023-03-01T13:41:51;12.38;;;8.77;;
75912;SDS011;64592;52.168;21.040;2023-03-01T13:46:56;15.25;;;8.07;;
75912;SDS011;64592;52.168;21.040;2023-03-01T13:52:00;17.48;;;8.57;;
75912;SDS011;64592;52.168;21.040;2023-03-01T13:57:05;17.50;;;8.70;;
75912;SDS011;64592;52.168;21.040;2023-03-01T14:02:11;15.63;;;8.20;;
75912;SDS011;64592;52.168;21.040;2023-03-01T14:07:17;14.57;;;8.95;;
75912;SDS011;64592;52.168;21.040;2023-03-01T14:12:35;16.65;;;8.45;;
75912;SDS011;64592;52.168;21.040;2023-03-01T14:17:49;13.93;;;8.18;;
75912;SDS011;64592;52.168;21.040;2023-03-01T14:22:58;13.75;;;7.45;;
75912;SDS011;64592;52.168;21.040;2023-03-01T14:28:04;15.10;;;7.97;;
75912;SDS011;64592;52.168;21.040;2023-03-01T14:33:20;17.80;;;10.02;;
75912;SDS011;64592;52.168;21.040;2023-03-01T14:38:28;16.75;;;9.10;;
75912;SDS011;64592;52.168;21.040;2023-03-01T14:43:33;19.48;;;11.13;;
75912;SDS011;64592;52.168;21.040;2023-03-01T14:48:36;17.95;;;9.35;;
75912;SDS011;64592;52.168;21.040;2023-03-01T14:53:38;18.60;;;9.63;;
75912;SDS011;64592;52.168;21.040;2023-03-01T14:58:41;17.73;;;10.00;;
75912;SDS011;64592;52.168;21.040;2023-03-01T15:03:43;19.02;;;10.90;;
75912;SDS011;64592;52.168;21.040;2023-03-01T15:08:47;23.40;;;11.07;;
75912;SDS011;64592;52.168;21.040;2023-03-01T15:13:53;22.02;;;11.27;;
75912;SDS011;64592;52.168;21.040;2023-03-01T15:18:55;24.45;;;12.70;;
75912;SDS011;64592;52.168;21.040;2023-03-01T15:24:01;23.58;;;11.98;;
75912;SDS011;64592;52.168;21.040;2023-03-01T15:29:14;21.33;;;11.60;;
75912;SDS011;64592;52.168;21.040;2023-03-01T15:34:21;23.83;;;12.15;;
75912;SDS011;64592;52.168;21.040;2023-03-01T15:39:32;23.85;;;11.50;;
75912;SDS011;64592;52.168;21.040;2023-03-01T15:44:39;17.80;;;10.00;;
75912;SDS011;64592;52.168;21.040;2023-03-01T15:49:44;21.88;;;11.82;;
75912;SDS011;64592;52.168;21.040;2023-03-01T15:54:46;24.30;;;11.00;;
75912;SDS011;64592;52.168;21.040;2023-03-01T15:59:49;27.10;;;11.00;;
75912;SDS011;64592;52.168;21.040;2023-03-01T16:04:51;26.67;;;11.57;;
75912;SDS011;64592;52.168;21.040;2023-03-01T16:09:53;22.75;;;11.98;;
75912;SDS011;64592;52.168;21.040;2023-03-01T16:14:56;19.42;;;10.35;;
75912;SDS011;64592;52.168;21.040;2023-03-01T16:19:58;21.80;;;10.82;;
75912;SDS011;64592;52.168;21.040;2023-03-01T16:25:00;15.95;;;9.27;;
75912;SDS011;64592;52.168;21.040;2023-03-01T16:30:04;23.45;;;10.63;;
75912;SDS011;64592;52.168;21.040;2023-03-01T16:35:08;21.38;;;10.52;;
75912;SDS011;64592;52.168;21.040;2023-03-01T16:40:16;24.60;;;10.82;;
75912;SDS011;64592;52.168;21.040;2023-03-01T16:45:20;21.02;;;10.95;;
75912;SDS011;64592;52.168;21.040;2023-03-01T16:50:22;24.75;;;11.23;;
75912;SDS011;64592;52.168;21.040;2023-03-01T16:55:24;21.13;;;11.25;;
75912;SDS011;64592;52.168;21.040;2023-03-01T17:00:27;27.08;;;12.05;;
75912;SDS011;64592;52.168;21.040;2023-03-01T17:05:29;28.80;;;11.90;;
75912;SDS011;64592;52.168;21.040;2023-03-01T17:10:30;26.25;;;13.95;;
75912;SDS011;64592;52.168;21.040;2023-03-01T17:15:36;25.92;;;12.65;;
75912;SDS011;64592;52.168;21.040;2023-03-01T17:20:39;26.90;;;12.60;;
75912;SDS011;64592;52.168;21.040;2023-03-01T17:25:41;29.38;;;12.73;;
75912;SDS011;64592;52.168;21.040;2023-03-01T17:30:45;21.38;;;10.95;;
75912;SDS011;64592;52.168;21.040;2023-03-01T17:35:48;26.05;;;13.13;;
75912;SDS011;64592;52.168;21.040;2023-03-01T17:40:50;26.83;;;14.15;;
75912;SDS011;64592;52.168;21.040;2023-03-01T17:45:54;27.02;;;13.32;;
75912;SDS011;64592;52.168;21.040;2023-03-01T17:50:56;27.05;;;14.23;;
75912;SDS011;64592;52.168;21.040;2023-03-01T17:55:58;30.35;;;14.85;;
75912;SDS011;64592;52.168;21.040;2023-03-01T18:01:10;25.60;;;14.35;;
75912;SDS011;64592;52.168;21.040;2023-03-01T18:06:13;34.53;;;16.30;;
75912;SDS011;64592;52.168;21.040;2023-03-01T18:11:17;30.13;;;14.95;;
75912;SDS011;64592;52.168;21.040;2023-03-01T18:16:20;27.50;;;14.93;;
75912;SDS011;64592;52.168;21.040;2023-03-01T18:21:23;34.42;;;14.73;;
75912;SDS011;64592;52.168;21.040;2023-03-01T18:26:25;32.78;;;14.73;;
75912;SDS011;64592;52.168;21.040;2023-03-01T18:31:29;30.60;;;12.85;;
75912;SDS011;64592;52.168;21.040;2023-03-01T18:36:33;29.73;;;16.30;;
75912;SDS011;64592;52.168;21.040;2023-03-01T18:41:35;42.83;;;18.88;;
75912;SDS011;64592;52.168;21.040;2023-03-01T18:46:40;33.97;;;19.15;;
75912;SDS011;64592;52.168;21.040;2023-03-01T18:51:41;35.47;;;17.20;;
75912;SDS011;64592;52.168;21.040;2023-03-01T18:56:43;37.80;;;18.92;;
75912;SDS011;64592;52.168;21.040;2023-03-01T19:01:47;37.45;;;19.60;;
75912;SDS011;64592;52.168;21.040;2023-03-01T19:06:48;39.75;;;18.17;;
75912;SDS011;64592;52.168;21.040;2023-03-01T19:11:50;40.97;;;19.17;;
75912;SDS011;64592;52.168;21.040;2023-03-01T19:16:54;35.95;;;16.63;;
75912;SDS011;64592;52.168;21.040;2023-03-01T19:21:55;37.40;;;20.30;;
75912;SDS011;64592;52.168;21.040;2023-03-01T19:26:57;43.50;;;20.58;;
75912;SDS011;64592;52.168;21.040;2023-03-01T19:32:00;38.60;;;21.70;;
75912;SDS011;64592;52.168;21.040;2023-03-01T19:37:02;44.45;;;22.13;;
75912;SDS011;64592;52.168;21.040;2023-03-01T19:42:04;48.22;;;22.38;;
75912;SDS011;64592;52.168;21.040;2023-03-01T19:47:07;42.70;;;20.85;;
75912;SDS011;64592;52.168;21.040;2023-03-01T19:52:08;41.17;;;20.88;;
75912;SDS011;64592;52.168;21.040;2023-03-01T19:57:10;41.97;;;22.02;;
75912;SDS011;64592;52.168;21.040;2023-03-01T20:02:13;44.30;;;23.38;;
75912;SDS011;64592;52.168;21.040;2023-03-01T20:07:15;53.30;;;24.92;;
75912;SDS011;64592;52.168;21.040;2023-03-01T20:12:18;45.15;;;20.73;;
75912;SDS011;64592;52.168;21.040;2023-03-01T20:17:21;49.78;;;25.00;;
75912;SDS011;64592;52.168;21.040;2023-03-01T20:22:22;51.38;;;22.77;;
75912;SDS011;64592;52.168;21.040;2023-03-01T20:27:24;45.58;;;22.30;;
75912;SDS011;64592;52.168;21.040;2023-03-01T20:32:27;48.78;;;22.85;;
75912;SDS011;64592;52.168;21.040;2023-03-01T20:37:30;47.17;;;20.85;;
75912;SDS011;64592;52.168;21.040;2023-03-01T20:42:32;45.17;;;20.90;;
75912;SDS011;64592;52.168;21.040;2023-03-01T20:47:35;50.17;;;21.00;;
75912;SDS011;64592;52.168;21.040;2023-03-01T20:52:36;43.72;;;21.55;;
75912;SDS011;64592;52.168;21.040;2023-03-01T20:57:38;37.42;;;20.60;;
75912;SDS011;64592;52.168;21.040;2023-03-01T21:02:44;50.50;;;24.13;;
75912;SDS011;64592;52.168;21.040;2023-03-01T21:07:46;48.67;;;23.20;;
75912;SDS011;64592;52.168;21.040;2023-03-01T21:12:48;49.20;;;23.02;;
75912;SDS011;64592;52.168;21.040;2023-03-01T21:17:51;54.35;;;23.27;;
75912;SDS011;64592;52.168;21.040;2023-03-01T21:22:52;52.75;;;24.23;;
75912;SDS011;64592;52.168;21.040;2023-03-01T21:27:54;48.47;;;22.65;;
75912;SDS011;64592;52.168;21.040;2023-03-01T21:32:57;44.10;;;23.27;;
75912;SDS011;64592;52.168;21.040;2023-03-01T21:37:59;46.97;;;24.95;;
75912;SDS011;64592;52.168;21.040;2023-03-01T21:43:00;50.28;;;24.83;;
75912;SDS011;64592;52.168;21.040;2023-03-01T21:48:04;46.45;;;24.05;;
75912;SDS011;64592;52.168;21.040;2023-03-01T21:53:05;49.20;;;23.27;;
75912;SDS011;64592;52.168;21.040;2023-03-01T21:58:07;48.53;;;24.27;;
75912;SDS011;64592;52.168;21.040;2023-03-01T22:03:10;60.78;;;25.65;;
75912;SDS011;64592;52.168;21.040;2023-03-01T22:08:12;50.13;;;23.70;;
75912;SDS011;64592;52.168;21.040;2023-03-01T22:13:14;44.85;;;25.23;;
75912;SDS011;64592;52.168;21.040;2023-03-01T22:18:17;51.80;;;25.67;;
75912;SDS011;64592;52.168;21.040;2023-03-01T22:23:19;54.95;;;26.50;;
75912;SDS011;64592;52.168;21.040;2023-03-01T22:28:21;55.35;;;24.95;;
75912;SDS011;64592;52.168;21.040;2023-03-01T22:33:24;65.78;;;28.25;;
75912;SDS011;64592;52.168;21.040;2023-03-01T22:38:26;56.08;;;27.73;;
75912;SDS011;64592;52.168;21.040;2023-03-01T22:43:28;57.13;;;29.55;;
75912;SDS011;64592;52.168;21.040;2023-03-01T22:48:32;60.25;;;26.75;;
75912;SDS011;64592;52.168;21.040;2023-03-01T22:53:33;49.38;;;25.08;;
75912;SDS011;64592;52.168;21.040;2023-03-01T22:58:35;48.22;;;26.17;;
75912;SDS011;64592;52.168;21.040;2023-03-01T23:03:38;56.60;;;25.02;;
75912;SDS011;64592;52.168;21.040;2023-03-01T23:08:40;50.00;;;25.40;;
75912;SDS011;64592;52.168;21.040;2023-03-01T23:13:42;49.92;;;24.75;;
75912;SDS011;64592;52.168;21.040;2023-03-01T23:18:45;53.63;;;25.38;;
75912;SDS011;64592;52.168;21.040;2023-03-01T23:23:47;57.92;;;26.98;;
75912;SDS011;64592;52.168;21.040;2023-03-01T23:28:48;53.45;;;28.02;;
75912;SDS011;64592;52.168;21.040;2023-03-01T23:33:53;52.33;;;25.17;;
75912;SDS011;64592;52.168;21.040;2023-03-01T23:38:55;55.28;;;29.13;;
75912;SDS011;64592;52.168;21.040;2023-03-01T23:43:59;57.42;;;26.83;;
75912;SDS011;64592;52.168;21.040;2023-03-01T23:49:03;51.30;;;25.35;;
75912;SDS011;64592;52.168;21.040;2023-03-01T23:54:05;59.60;;;27.90;;
75912;SDS011;64592;52.168;21.040;2023-03-01T23:59:08;54.03;;;25.85;;
